Terminal Aerodrome Forecast
Issued by NWS North Platte, NE

Home | Current Version | Previous Version | Text Only | Print | Product List | Glossary On
Versions: 1 2 3 4 5 6 7 8 9 10 11 12 13
000
FTUS43 KLBF 210500
TAFVTN
TAF
KVTN 210524Z 2106/2206 34015G25KT P6SM SKC
     FM210900 34014KT P6SM SKC
     FM211500 34013G20KT P6SM SKC
     FM220000 VRB06KT P6SM SKC=

USA.gov is the U.S. government's official web portal to all federal, state and local government web resources and services.